createdAt,value
2023-03-22T00:01:24.846Z,99714.00
2023-03-22T00:03:53.399Z,99710.94
2023-03-22T00:06:21.191Z,99719.78
2023-03-22T00:08:50.501Z,99722.13
2023-03-22T00:11:18.658Z,99717.66
2023-03-22T00:13:46.935Z,99711.38
2023-03-22T00:16:14.818Z,99707.47
2023-03-22T00:18:43.671Z,99708.91
2023-03-22T00:21:13.461Z,99705.19
2023-03-22T00:23:41.296Z,99700.38
2023-03-22T00:26:09.204Z,99697.59
2023-03-22T00:28:36.712Z,99697.78
2023-03-22T00:31:05.522Z,99695.78
2023-03-22T00:33:34.193Z,99690.25
2023-03-22T00:36:05.594Z,99679.41
2023-03-22T00:38:42.546Z,99685.44
2023-03-22T00:41:12.865Z,99680.09
2023-03-22T00:43:40.731Z,99679.50
2023-03-22T00:46:08.422Z,99683.13
2023-03-22T00:48:36.100Z,99680.09
2023-03-22T00:51:05.454Z,99669.41
2023-03-22T00:53:34.277Z,99675.00
2023-03-22T00:56:01.741Z,99684.13
2023-03-22T00:58:29.216Z,99674.88
2023-03-22T01:00:56.822Z,99683.28
2023-03-22T01:03:24.722Z,99675.38
2023-03-22T01:05:55.509Z,99674.69
2023-03-22T01:08:24.681Z,99668.75
2023-03-22T01:10:52.349Z,99667.94
2023-03-22T01:13:19.888Z,99669.50
2023-03-22T01:15:51.097Z,99663.41
2023-03-22T01:18:19.018Z,99673.13
2023-03-22T01:20:46.489Z,99662.97
2023-03-22T01:23:13.966Z,99663.00
2023-03-22T01:25:42.759Z,99657.22
2023-03-22T01:28:10.398Z,99658.50
2023-03-22T01:30:40.473Z,99659.97
2023-03-22T01:33:08.586Z,99662.09
2023-03-22T01:35:36.485Z,99659.69
2023-03-22T01:38:04.162Z,99653.03
2023-03-22T01:40:31.637Z,99652.88
2023-03-22T01:43:00.534Z,99648.97
2023-03-22T01:45:36.545Z,99657.69
2023-03-22T01:48:07.731Z,99652.75
2023-03-22T01:50:37.430Z,99651.44
2023-03-22T01:53:05.387Z,99642.44
2023-03-22T01:55:34.270Z,99647.91
2023-03-22T01:58:03.949Z,99647.56
2023-03-22T02:00:31.894Z,99644.28
2023-03-22T02:02:59.413Z,99632.41
2023-03-22T02:05:27.494Z,99640.19
2023-03-22T02:07:54.981Z,99642.13
2023-03-22T02:10:24.265Z,99633.44
2023-03-22T02:13:02.021Z,99634.25
2023-03-22T02:15:34.741Z,99637.59
2023-03-22T02:18:11.623Z,99639.22
2023-03-22T02:21:14.233Z,99636.59
2023-03-22T02:24:07.602Z,99638.78
2023-03-22T02:27:07.180Z,99637.09
2023-03-22T02:29:40.477Z,99633.44
2023-03-22T02:32:43.264Z,99632.72
2023-03-22T02:35:22.470Z,99630.66
2023-03-22T02:38:28.709Z,99628.88
2023-03-22T02:41:03.398Z,99615.56
2023-03-22T02:43:38.551Z,99618.38
2023-03-22T02:46:09.737Z,99612.63
2023-03-22T02:48:41.703Z,99609.63
2023-03-22T02:51:11.521Z,99615.59
2023-03-22T02:53:43.322Z,99609.22
2023-03-22T02:56:14.304Z,99613.97
2023-03-22T02:58:45.612Z,99611.78
2023-03-22T03:01:18.040Z,99607.25
2023-03-22T03:03:48.152Z,99607.38
2023-03-22T03:06:18.105Z,99611.44
2023-03-22T03:08:47.588Z,99609.28
2023-03-22T03:11:16.388Z,99610.28
2023-03-22T03:13:43.870Z,99605.16
2023-03-22T03:16:13.161Z,99600.47
2023-03-22T03:18:45.599Z,99596.59
2023-03-22T03:21:22.108Z,99601.09
2023-03-22T03:23:55.541Z,99594.44
2023-03-22T03:26:29.394Z,99594.44
2023-03-22T03:28:59.590Z,99606.41
2023-03-22T03:31:32.684Z,99604.56
2023-03-22T03:34:06.568Z,99604.38
2023-03-22T03:36:37.783Z,99599.47
2023-03-22T03:39:08.081Z,99595.94
2023-03-22T03:41:37.049Z,99596.66
2023-03-22T03:44:04.966Z,99597.59
2023-03-22T03:46:32.531Z,99587.91
2023-03-22T03:49:00.137Z,99597.09
2023-03-22T03:51:28.382Z,99599.47
2023-03-22T03:53:55.872Z,99597.88
2023-03-22T03:56:23.348Z,99592.25
2023-03-22T03:58:52.141Z,99585.97
2023-03-22T04:01:20.674Z,99591.22
2023-03-22T04:03:50.573Z,99589.94
2023-03-22T04:06:18.108Z,99585.25
2023-03-22T04:08:45.859Z,99580.69
2023-03-22T04:11:13.366Z,99578.09
2023-03-22T04:13:40.835Z,99581.59
2023-03-22T04:16:10.651Z,99574.34
2023-03-22T04:18:38.870Z,99572.88
2023-03-22T04:21:07.022Z,99578.44
2023-03-22T04:23:34.493Z,99562.53
2023-03-22T04:26:01.963Z,99567.81
2023-03-22T04:28:29.452Z,99563.53
2023-03-22T04:30:57.344Z,99575.16
2023-03-22T04:33:26.427Z,99569.09
2023-03-22T04:35:56.834Z,99563.50
2023-03-22T04:38:25.241Z,99568.06
2023-03-22T04:40:52.768Z,99562.06
2023-03-22T04:43:20.244Z,99557.22
2023-03-22T04:45:48.774Z,99559.41
2023-03-22T04:48:17.553Z,99556.63
2023-03-22T04:50:46.370Z,99556.28
2023-03-22T04:53:14.177Z,99554.31
2023-03-22T04:55:41.664Z,99553.47
2023-03-22T04:58:09.238Z,99548.13
2023-03-22T05:00:37.667Z,99548.28
2023-03-22T05:03:05.831Z,99550.47
2023-03-22T05:05:33.481Z,99545.88
2023-03-22T05:08:02.253Z,99544.44
2023-03-22T05:10:29.723Z,99550.81
2023-03-22T05:12:57.233Z,99555.00
2023-03-22T05:15:24.697Z,99554.97
2023-03-22T05:17:52.190Z,99554.75
2023-03-22T05:20:19.663Z,99563.50
2023-03-22T05:22:50.534Z,99560.19
2023-03-22T05:25:19.389Z,99550.63
2023-03-22T05:27:46.877Z,99559.84
2023-03-22T05:30:15.518Z,99558.53
2023-03-22T05:32:43.840Z,99554.81
2023-03-22T05:35:11.582Z,99560.06
2023-03-22T05:37:39.310Z,99560.56
2023-03-22T05:40:10.071Z,99565.41
2023-03-22T05:42:39.061Z,99560.44
2023-03-22T05:45:07.552Z,99563.69
2023-03-22T05:47:36.112Z,99555.16
2023-03-22T05:50:03.693Z,99559.34
2023-03-22T05:52:31.166Z,99563.56
2023-03-22T05:54:58.667Z,99557.69
2023-03-22T05:57:26.421Z,99562.69
2023-03-22T05:59:55.212Z,99560.00
2023-03-22T06:02:22.814Z,99560.56
2023-03-22T06:04:52.062Z,99559.75
2023-03-22T06:07:19.749Z,99557.78
2023-03-22T06:09:47.796Z,99563.00
2023-03-22T06:12:17.082Z,99554.66
2023-03-22T06:14:44.755Z,99559.22
2023-03-22T06:17:13.520Z,99558.81
2023-03-22T06:19:41.006Z,99551.19
2023-03-22T06:22:08.746Z,99556.38
2023-03-22T06:24:36.326Z,99554.09
2023-03-22T06:27:03.836Z,99546.78
2023-03-22T06:29:31.539Z,99545.34
2023-03-22T06:31:59.014Z,99546.16
2023-03-22T06:34:27.792Z,99549.81
2023-03-22T06:36:55.455Z,99544.34
2023-03-22T06:39:23.452Z,99547.34
2023-03-22T06:41:51.607Z,99550.75
2023-03-22T06:44:19.532Z,99555.56
2023-03-22T06:46:47.000Z,99558.41
2023-03-22T06:49:14.496Z,99553.81
2023-03-22T06:51:43.286Z,99545.75
2023-03-22T06:54:12.593Z,99554.81
2023-03-22T06:56:40.083Z,99553.53
2023-03-22T06:59:07.616Z,99557.34
2023-03-22T07:01:35.186Z,99559.63
2023-03-22T07:04:02.751Z,99562.50
2023-03-22T07:06:30.823Z,99561.63
2023-03-22T07:08:59.675Z,99558.19
2023-03-22T07:11:27.198Z,99550.47
2023-03-22T07:13:55.150Z,99543.38
2023-03-22T07:16:23.155Z,99550.78
2023-03-22T07:18:50.742Z,99540.72
2023-03-22T07:21:18.201Z,99536.63
2023-03-22T07:23:45.719Z,99539.25
2023-03-22T07:26:14.546Z,99539.00
2023-03-22T07:28:44.476Z,99539.88
2023-03-22T07:31:13.090Z,99527.81
2023-03-22T07:33:40.944Z,99536.78
2023-03-22T07:36:09.686Z,99533.25
2023-03-22T07:38:37.618Z,99538.75
2023-03-22T07:41:05.983Z,99520.69
2023-03-22T07:43:47.364Z,99528.75
2023-03-22T07:46:20.403Z,99524.84
2023-03-22T07:48:47.903Z,99523.97
2023-03-22T07:51:15.396Z,99520.81
2023-03-22T07:53:42.868Z,99518.88
2023-03-22T07:56:10.788Z,99515.34
2023-03-22T07:58:39.671Z,99514.50
2023-03-22T08:01:09.206Z,99504.69
2023-03-22T08:03:37.534Z,99499.97
2023-03-22T08:06:07.675Z,99498.06
2023-03-22T08:08:35.569Z,99496.50
2023-03-22T08:11:03.187Z,99512.41
2023-03-22T08:13:31.013Z,99510.72
2023-03-22T08:16:00.851Z,99506.19
2023-03-22T08:18:28.532Z,99502.50
2023-03-22T08:20:57.047Z,99489.28
2023-03-22T08:23:38.465Z,99490.81
2023-03-22T08:26:08.883Z,99491.03
2023-03-22T08:28:36.474Z,99485.56
2023-03-22T08:31:13.214Z,99466.63
2023-03-22T08:33:41.466Z,99472.13
2023-03-22T08:36:12.099Z,99474.56
2023-03-22T08:38:39.568Z,99473.78
2023-03-22T08:41:07.260Z,99466.34
2023-03-22T08:43:34.800Z,99475.66
2023-03-22T08:46:02.376Z,99473.78
2023-03-22T08:48:31.855Z,99472.97
2023-03-22T08:50:59.418Z,99471.50
2023-03-22T08:53:26.916Z,99463.38
2023-03-22T08:55:58.072Z,99470.00
2023-03-22T08:58:25.605Z,99472.72
2023-03-22T09:00:53.127Z,99468.97
2023-03-22T09:03:20.839Z,99463.38
2023-03-22T09:05:49.622Z,99464.53
2023-03-22T09:08:19.422Z,99458.25
2023-03-22T09:10:51.248Z,99453.06
2023-03-22T09:13:18.951Z,99446.50
2023-03-22T09:15:46.497Z,99445.25
2023-03-22T09:18:14.568Z,99448.66
2023-03-22T09:20:42.705Z,99451.03
2023-03-22T09:23:11.872Z,99441.25
2023-03-22T09:25:39.626Z,99430.88
2023-03-22T09:28:07.718Z,99432.53
2023-03-22T09:30:36.087Z,99443.16
2023-03-22T09:33:03.811Z,99432.66
2023-03-22T09:35:32.208Z,99428.81
2023-03-22T09:38:00.035Z,99430.00
2023-03-22T09:40:31.396Z,99429.69
2023-03-22T09:43:00.184Z,99434.53
2023-03-22T09:45:37.887Z,99420.19
2023-03-22T09:48:07.089Z,99413.16
2023-03-22T09:50:37.115Z,99404.84
2023-03-22T09:53:04.610Z,99400.59
2023-03-22T09:55:38.876Z,99410.13
2023-03-22T09:58:11.885Z,99403.88
2023-03-22T10:00:42.205Z,99409.13
2023-03-22T10:03:21.026Z,99399.00
2023-03-22T10:05:51.494Z,99399.78
2023-03-22T10:08:26.847Z,99401.25
2023-03-22T10:10:55.673Z,99396.09
2023-03-22T10:13:28.666Z,99392.22
2023-03-22T10:15:58.979Z,99393.81
2023-03-22T10:18:29.461Z,99391.41
2023-03-22T10:21:01.525Z,99400.59
2023-03-22T10:23:32.731Z,99395.91
2023-03-22T10:26:02.152Z,99390.56
2023-03-22T10:28:33.340Z,99384.41
2023-03-22T10:31:00.922Z,99386.34
2023-03-22T10:33:36.611Z,99388.03
2023-03-22T10:36:05.620Z,99375.94
2023-03-22T10:38:35.597Z,99372.53
2023-03-22T10:41:04.784Z,99368.31
2023-03-22T10:43:34.464Z,99355.22
2023-03-22T10:46:04.729Z,99355.94
2023-03-22T10:48:35.450Z,99353.81
2023-03-22T10:51:04.168Z,99347.03
2023-03-22T10:53:37.788Z,99347.19
2023-03-22T10:56:11.190Z,99357.97
2023-03-22T10:58:38.700Z,99347.72
2023-03-22T11:01:09.276Z,99355.66
2023-03-22T11:03:41.152Z,99365.81
2023-03-22T11:06:11.037Z,99351.00
2023-03-22T11:08:44.956Z,99337.88
2023-03-22T11:11:21.920Z,99345.91
2023-03-22T11:13:55.584Z,99343.06
2023-03-22T11:16:24.314Z,99348.88
2023-03-22T11:18:52.049Z,99343.66
2023-03-22T11:21:21.137Z,99341.22
2023-03-22T11:23:55.827Z,99347.00
2023-03-22T11:26:30.460Z,99346.56
2023-03-22T11:29:11.918Z,99355.59
2023-03-22T11:31:57.311Z,99354.00
2023-03-22T11:34:27.599Z,99349.94
2023-03-22T11:36:56.946Z,99345.06
2023-03-22T11:39:28.197Z,99348.69
2023-03-22T11:41:58.610Z,99347.03
2023-03-22T11:44:27.401Z,99354.72
2023-03-22T11:46:57.833Z,99344.53
2023-03-22T11:49:27.586Z,99327.03
2023-03-22T11:51:56.301Z,99331.28
2023-03-22T11:54:29.435Z,99333.78
2023-03-22T11:57:01.294Z,99329.38
2023-03-22T11:59:30.444Z,99324.69
2023-03-22T12:02:01.644Z,99330.88
2023-03-22T12:04:31.185Z,99318.44
2023-03-22T12:07:00.993Z,99320.31
2023-03-22T12:09:35.637Z,99315.72
2023-03-22T12:12:05.934Z,99314.31
2023-03-22T12:14:35.997Z,99313.59
2023-03-22T12:17:07.262Z,99314.78
2023-03-22T12:19:43.471Z,99320.16
2023-03-22T12:22:14.657Z,99322.06
2023-03-22T12:24:43.042Z,99320.00
2023-03-22T12:27:17.269Z,99329.06
2023-03-22T12:29:48.435Z,99326.09
2023-03-22T12:32:18.861Z,99328.97
2023-03-22T12:34:48.804Z,99322.44
2023-03-22T12:37:21.197Z,99322.84
2023-03-22T12:39:51.800Z,99326.34
2023-03-22T12:42:24.965Z,99316.91
2023-03-22T12:45:04.216Z,99324.06
2023-03-22T12:47:36.689Z,99321.00
2023-03-22T12:50:07.364Z,99317.94
2023-03-22T12:52:45.358Z,99320.56
2023-03-22T12:55:21.273Z,99318.03
2023-03-22T12:57:54.316Z,99323.75
2023-03-22T13:00:23.343Z,99311.69
2023-03-22T13:02:55.974Z,99320.00
2023-03-22T13:05:28.452Z,99321.72
2023-03-22T13:07:58.864Z,99319.72
2023-03-22T13:10:47.354Z,99306.06
2023-03-22T13:13:34.942Z,99316.88
2023-03-22T13:16:15.491Z,99312.16
2023-03-22T13:18:59.845Z,99302.59
2023-03-22T13:21:29.280Z,99306.63
2023-03-22T13:24:01.546Z,99313.75
2023-03-22T13:26:34.957Z,99300.47
2023-03-22T13:29:11.163Z,99312.06
2023-03-22T13:31:42.471Z,99319.41
2023-03-22T13:34:15.427Z,99315.94
2023-03-22T13:36:50.557Z,99306.78
2023-03-22T13:39:18.337Z,99312.47
2023-03-22T13:41:49.390Z,99307.44
2023-03-22T13:44:26.809Z,99304.28
2023-03-22T13:46:58.768Z,99299.88
2023-03-22T13:49:48.007Z,99309.28
2023-03-22T13:52:40.303Z,99297.75
2023-03-22T13:55:18.855Z,99287.88
2023-03-22T13:57:58.868Z,99291.63
2023-03-22T14:00:48.031Z,99291.97
2023-03-22T14:03:25.480Z,99286.81
2023-03-22T14:06:02.798Z,99287.31
2023-03-22T14:08:31.331Z,99291.75
2023-03-22T14:11:04.106Z,99284.69
2023-03-22T14:13:34.341Z,99284.88
2023-03-22T14:16:08.829Z,99287.69
2023-03-22T14:18:38.234Z,99278.41
2023-03-22T14:21:08.109Z,99285.72
